createdAt,value
2019-03-22T00:03:27.818Z,4.50
2019-03-22T00:08:32.129Z,4.50
2019-03-22T00:13:36.420Z,4.40
2019-03-22T00:18:41.054Z,4.40
2019-03-22T00:23:45.745Z,4.30
2019-03-22T00:28:51.937Z,4.30
2019-03-22T00:33:59.595Z,4.30
2019-03-22T00:39:05.201Z,4.20
2019-03-22T00:44:10.318Z,4.20
2019-03-22T00:49:14.706Z,4.20
2019-03-22T00:54:22.453Z,4.10
2019-03-22T00:59:26.842Z,4.20
2019-03-22T01:04:31.355Z,4.20
2019-03-22T01:09:35.671Z,4.10
2019-03-22T01:14:40.343Z,4.00
2019-03-22T01:19:45.152Z,4.00
2019-03-22T01:24:50.411Z,3.90
2019-03-22T01:29:55.791Z,3.90
2019-03-22T01:35:00.427Z,3.90
2019-03-22T01:40:07.048Z,3.90
2019-03-22T01:45:12.934Z,3.90
2019-03-22T01:50:17.489Z,3.90
2019-03-22T01:55:22.762Z,3.80
2019-03-22T02:00:29.386Z,3.80
2019-03-22T02:05:36.959Z,3.80
2019-03-22T02:11:01.296Z,3.70
2019-03-22T02:16:05.727Z,3.70
2019-03-22T02:21:10.140Z,3.60
2019-03-22T02:26:19.376Z,3.60
2019-03-22T02:31:25.296Z,3.70
2019-03-22T02:36:30.848Z,3.90
2019-03-22T02:41:35.541Z,4.00
2019-03-22T02:46:40.232Z,4.10
2019-03-22T02:51:46.193Z,4.00
2019-03-22T02:56:54.831Z,3.80
2019-03-22T03:02:00.770Z,3.70
2019-03-22T03:07:05.160Z,3.50
2019-03-22T03:12:11.158Z,3.50
2019-03-22T03:17:17.106Z,3.40
2019-03-22T03:22:25.919Z,3.40
2019-03-22T03:27:30.762Z,3.40
2019-03-22T03:32:35.104Z,3.30
2019-03-22T03:37:40.311Z,3.20
2019-03-22T03:42:48.756Z,3.10
2019-03-22T03:47:53.683Z,3.00
2019-03-22T03:52:59.510Z,3.00
2019-03-22T03:58:04.020Z,2.90
2019-03-22T04:03:08.321Z,2.90
2019-03-22T04:08:12.709Z,2.80
2019-03-22T04:13:17.537Z,2.80
2019-03-22T04:18:21.959Z,2.80
2019-03-22T04:23:26.279Z,2.80
2019-03-22T04:28:31.206Z,2.70
2019-03-22T04:33:35.921Z,2.70
2019-03-22T04:38:45.483Z,2.70
2019-03-22T04:43:50.133Z,2.60
2019-03-22T04:48:54.497Z,2.50
2019-03-22T04:54:18.746Z,2.50
2019-03-22T04:59:25.115Z,2.40
2019-03-22T05:04:30.080Z,2.40
2019-03-22T05:09:36.291Z,2.40
2019-03-22T05:14:44.140Z,2.40
2019-03-22T05:19:53.565Z,2.50
2019-03-22T05:24:58.838Z,2.50
2019-03-22T05:30:04.325Z,2.40
2019-03-22T05:35:11.038Z,2.30
2019-03-22T05:40:20.773Z,2.30
2019-03-22T05:45:25.447Z,2.60
2019-03-22T05:50:31.360Z,2.70
2019-03-22T05:55:36.083Z,2.70
2019-03-22T06:00:51.458Z,2.90
2019-03-22T06:05:55.900Z,3.20
2019-03-22T06:10:59.119Z,3.50
2019-03-22T06:16:04.357Z,4.20
2019-03-22T06:21:11.024Z,5.00
2019-03-22T06:26:18.205Z,6.10
2019-03-22T06:31:22.552Z,6.60
2019-03-22T06:36:26.868Z,7.10
2019-03-22T06:41:31.653Z,7.30
2019-03-22T06:46:56.665Z,7.40
2019-03-22T06:52:01.057Z,7.50
2019-03-22T06:57:10.026Z,7.50
2019-03-22T07:02:18.982Z,7.70
2019-03-22T07:07:25.566Z,8.40
2019-03-22T07:12:29.874Z,9.00
2019-03-22T07:17:34.596Z,9.00
2019-03-22T07:22:37.865Z,8.90
2019-03-22T07:27:42.266Z,9.30
2019-03-22T07:32:49.882Z,9.50
2019-03-22T07:37:54.198Z,9.80
2019-03-22T07:42:59.276Z,10.40
2019-03-22T07:48:03.826Z,11.20
2019-03-22T07:53:08.444Z,11.90
2019-03-22T07:59:23.135Z,12.50
2019-03-22T08:04:29.943Z,13.20
2019-03-22T08:09:37.882Z,14.30
2019-03-22T08:14:45.782Z,15.50
2019-03-22T08:19:57.085Z,16.30
2019-03-22T08:25:01.360Z,16.50
2019-03-22T08:30:08.581Z,16.80
2019-03-22T08:35:17.904Z,17.70
2019-03-22T08:40:31.360Z,18.60
2019-03-22T08:45:43.618Z,19.90
2019-03-22T08:50:52.888Z,21.00
2019-03-22T08:55:57.331Z,21.90
2019-03-22T09:01:03.905Z,22.20
2019-03-22T09:06:59.101Z,21.90
2019-03-22T09:12:08.369Z,21.50
2019-03-22T09:23:27.399Z,21.80
2019-03-22T09:28:37.184Z,21.30
2019-03-22T09:33:41.562Z,21.10
2019-03-22T09:38:46.959Z,20.80
2019-03-22T09:44:18.390Z,20.70
2019-03-22T09:49:25.930Z,21.10
2019-03-22T10:13:10.143Z,22.90
2019-03-22T10:18:37.189Z,22.80
2019-03-22T10:23:46.046Z,22.30
2019-03-22T10:41:41.197Z,22.20
2019-03-22T10:46:47.156Z,22.30
2019-03-22T10:51:57.691Z,22.50
2019-03-22T10:56:59.691Z,22.50
2019-03-22T11:02:07.405Z,22.50
2019-03-22T11:07:10.342Z,22.40
2019-03-22T11:12:15.041Z,22.10
2019-03-22T11:17:18.603Z,22.00
2019-03-22T11:22:24.570Z,21.80
2019-03-22T11:27:34.090Z,21.60
2019-03-22T11:32:38.770Z,21.70
2019-03-22T11:37:52.443Z,21.90
2019-03-22T11:42:57.240Z,21.90
2019-03-22T11:48:02.139Z,21.70
2019-03-22T11:53:21.025Z,21.70
2019-03-22T11:58:28.858Z,21.50
2019-03-22T12:03:59.250Z,21.40
2019-03-22T12:09:04.342Z,21.20
2019-03-22T12:14:08.953Z,21.30
2019-03-22T12:19:12.200Z,21.30
2019-03-22T12:24:18.669Z,21.40
2019-03-22T12:29:22.476Z,21.10
2019-03-22T12:34:26.809Z,21.00
2019-03-22T12:39:31.097Z,20.80
2019-03-22T12:44:35.793Z,20.20
2019-03-22T12:49:38.979Z,19.80
2019-03-22T12:54:44.941Z,19.50
2019-03-22T12:59:49.562Z,19.40
2019-03-22T13:04:54.132Z,19.30
2019-03-22T13:09:59.094Z,19.20
2019-03-22T13:15:11.111Z,19.20
2019-03-22T13:20:20.327Z,19.20
2019-03-22T13:25:29.378Z,19.20
2019-03-22T13:30:41.989Z,19.20
2019-03-22T13:35:46.373Z,19.20
2019-03-22T13:40:50.934Z,19.20
2019-03-22T13:45:58.905Z,19.30
2019-03-22T13:51:03.360Z,19.30
2019-03-22T13:56:07.977Z,19.30
2019-03-22T14:01:12.436Z,19.30
2019-03-22T14:06:24.139Z,19.40
2019-03-22T14:11:28.845Z,19.40
2019-03-22T14:16:32.036Z,19.40
2019-03-22T14:21:36.602Z,19.40
2019-03-22T14:26:40.861Z,19.40
2019-03-22T14:31:45.152Z,19.40
2019-03-22T14:36:49.457Z,19.40
2019-03-22T14:41:54.105Z,19.40
2019-03-22T14:46:59.775Z,19.40
2019-03-22T14:52:06.133Z,19.40
2019-03-22T14:57:19.599Z,19.30
2019-03-22T15:02:27.366Z,19.30
2019-03-22T15:07:31.983Z,19.30
2019-03-22T15:12:39.034Z,19.20
2019-03-22T15:17:53.938Z,19.20
2019-03-22T15:23:45.560Z,19.20
2019-03-22T15:29:07.178Z,19.10
2019-03-22T15:34:36.156Z,19.00
2019-03-22T15:39:58.947Z,19.00
2019-03-22T15:45:03.628Z,18.80
2019-03-22T15:50:07.738Z,18.70
2019-03-22T15:55:15.854Z,18.70
2019-03-22T16:00:20.364Z,18.60
2019-03-22T16:05:27.996Z,18.50
2019-03-22T16:10:37.890Z,18.40
2019-03-22T16:15:42.340Z,18.20
2019-03-22T16:21:28.467Z,18.10
2019-03-22T16:26:44.016Z,18.10
2019-03-22T16:31:48.659Z,18.00
2019-03-22T16:36:55.434Z,17.90
2019-03-22T16:42:02.459Z,17.90
2019-03-22T16:47:13.550Z,17.80
2019-03-22T16:52:18.133Z,17.60
2019-03-22T16:57:24.564Z,17.30
2019-03-22T17:02:28.922Z,17.10
2019-03-22T17:07:33.313Z,17.00
2019-03-22T17:12:37.605Z,16.90
2019-03-22T17:17:43.477Z,16.80
2019-03-22T17:22:49.828Z,16.60
2019-03-22T17:27:54.247Z,16.30
2019-03-22T17:32:58.544Z,15.90
2019-03-22T17:38:03.262Z,15.50
2019-03-22T17:43:06.769Z,15.20
2019-03-22T17:48:12.125Z,14.80
2019-03-22T17:53:16.726Z,14.30
2019-03-22T17:58:21.881Z,13.90
2019-03-22T18:03:27.669Z,13.60
2019-03-22T18:08:31.949Z,13.30
2019-03-22T18:13:36.230Z,13.00
2019-03-22T18:18:41.218Z,12.70
2019-03-22T18:23:48.767Z,12.50
2019-03-22T18:28:53.086Z,12.30
2019-03-22T18:33:57.401Z,12.20
2019-03-22T18:39:01.699Z,11.90
2019-03-22T18:44:06.125Z,11.80
2019-03-22T18:49:10.894Z,11.70
2019-03-22T18:54:14.343Z,11.50
2019-03-22T18:59:19.506Z,11.40
2019-03-22T19:04:24.380Z,11.30
2019-03-22T19:09:28.952Z,11.30
2019-03-22T19:14:33.596Z,11.40
2019-03-22T19:19:37.988Z,11.50
2019-03-22T19:24:42.817Z,11.60
2019-03-22T19:29:47.450Z,11.60
2019-03-22T19:34:54.509Z,11.60
2019-03-22T19:39:58.986Z,11.40
2019-03-22T19:45:03.344Z,11.30
2019-03-22T19:50:07.821Z,11.10
2019-03-22T19:55:13.514Z,10.90
2019-03-22T20:00:17.960Z,10.60
2019-03-22T20:05:32.986Z,10.40
2019-03-22T20:10:37.380Z,10.30
2019-03-22T20:15:41.822Z,10.20
2019-03-22T20:20:46.207Z,10.10
2019-03-22T20:25:50.559Z,10.00
2019-03-22T20:30:54.869Z,9.90
2019-03-22T20:35:59.428Z,9.80
2019-03-22T20:41:03.808Z,9.70
2019-03-22T20:46:08.175Z,9.60
2019-03-22T20:51:33.832Z,9.40
2019-03-22T20:56:39.602Z,9.30
2019-03-22T21:01:48.015Z,9.20
2019-03-22T21:06:56.843Z,9.10
2019-03-22T21:12:09.416Z,9.00
2019-03-22T21:17:16.165Z,9.10
2019-03-22T21:22:20.741Z,9.00
2019-03-22T21:27:26.656Z,8.90
2019-03-22T21:32:32.914Z,8.80
2019-03-22T21:37:38.599Z,8.70
2019-03-22T21:42:43.354Z,8.60
2019-03-22T21:47:47.345Z,8.50
2019-03-22T21:52:53.907Z,8.40
2019-03-22T21:57:58.864Z,8.30
2019-03-22T22:03:03.567Z,8.20
2019-03-22T22:08:07.177Z,8.10
2019-03-22T22:13:11.883Z,7.90
2019-03-22T22:18:15.161Z,7.70
2019-03-22T22:23:21.173Z,7.60
2019-03-22T22:28:25.870Z,7.50
2019-03-22T22:41:11.332Z,7.30
2019-03-22T22:46:15.769Z,7.10
2019-03-22T22:51:20.565Z,6.90
2019-03-22T22:57:03.584Z,6.70
2019-03-22T23:02:08.523Z,6.60
2019-03-22T23:07:16.029Z,6.60
2019-03-22T23:12:21.718Z,6.50
2019-03-22T23:17:29.108Z,6.40
2019-03-22T23:22:59.498Z,6.30
2019-03-22T23:28:44.999Z,6.10
2019-03-22T23:33:49.445Z,5.90
2019-03-22T23:39:42.985Z,5.90
2019-03-22T23:44:51.390Z,5.80
2019-03-22T23:49:55.811Z,5.70
2019-03-22T23:55:00.352Z,5.70
